Time;durP1;ratioP1;P1;durP2;ratioP2;P2;SDS_P1;SDS_P2;PMS_P1;PMS_P2;Temp;Humidity;BMP_temperature;BMP_pressure;BME280_temperature;BME280_humidity;BME280_pressure;Samples;Min_cycle;Max_cycle;Signal;HPM_P1;HPM_P2
2022/12/21 00:01:12;;;;;;;21.85;7.85;;;3.50;99.90;;;;;;5116795;27;20023;-74
2022/12/21 00:03:38;;;;;;;17.50;7.57;;;3.40;99.90;;;;;;5106754;28;20032;-74
2022/12/21 00:06:05;;;;;;;18.73;7.45;;;3.40;99.90;;;;;;5111788;28;20042;-73
2022/12/21 00:08:45;;;;;;;16.08;6.50;;;3.40;99.90;;;;;;5112583;27;20127;-74
2022/12/21 00:11:12;;;;;;;18.50;7.75;;;3.30;99.90;;;;;;5101483;28;20428;-74
2022/12/21 00:13:38;;;;;;;17.90;6.70;;;3.30;99.90;;;;;;5111184;27;20125;-74
2022/12/21 00:16:06;;;;;;;15.68;8.02;;;3.20;99.90;;;;;;5118665;27;20479;-74
2022/12/21 00:18:33;;;;;;;19.77;7.20;;;3.20;99.90;;;;;;5108610;28;20383;-74
2022/12/21 00:21:00;;;;;;;21.63;7.28;;;3.10;99.90;;;;;;5110119;27;20058;-73
2022/12/21 00:23:26;;;;;;;16.15;7.25;;;3.20;99.90;;;;;;5118112;27;20023;-74
2022/12/21 00:25:52;;;;;;;16.27;6.40;;;3.20;99.90;;;;;;5119501;27;20020;-74
2022/12/21 00:28:18;;;;;;;17.83;6.97;;;3.20;99.90;;;;;;5118515;27;20031;-74
2022/12/21 00:30:43;;;;;;;11.52;6.45;;;3.30;99.90;;;;;;5105372;28;20027;-74
2022/12/21 00:33:09;;;;;;;18.88;6.95;;;3.30;99.90;;;;;;5110565;28;20081;-74
2022/12/21 00:35:34;;;;;;;20.02;7.50;;;3.30;99.90;;;;;;5105575;28;20028;-73
2022/12/21 00:38:00;;;;;;;17.73;8.00;;;3.40;99.90;;;;;;5112669;27;20463;-73
2022/12/21 00:40:26;;;;;;;14.95;6.68;;;3.50;99.90;;;;;;5105372;28;20070;-75
2022/12/21 00:42:51;;;;;;;18.63;8.48;;;3.50;99.90;;;;;;5080288;28;20450;-74
2022/12/21 00:45:17;;;;;;;18.10;8.60;;;3.50;99.90;;;;;;5089820;28;20027;-74
2022/12/21 00:47:43;;;;;;;20.27;8.18;;;3.50;99.90;;;;;;5104144;28;20020;-74
2022/12/21 00:50:08;;;;;;;16.40;6.85;;;3.50;99.90;;;;;;5105503;28;20367;-74
2022/12/21 00:52:34;;;;;;;19.45;7.35;;;3.50;99.90;;;;;;5097282;28;20020;-75
2022/12/21 00:55:00;;;;;;;17.00;7.25;;;3.50;99.90;;;;;;5101641;28;20065;-74
2022/12/21 00:57:27;;;;;;;11.60;5.95;;;3.50;99.90;;;;;;5102400;28;20059;-73
2022/12/21 00:59:53;;;;;;;13.80;6.82;;;3.50;99.90;;;;;;5107317;28;20031;-73
2022/12/21 01:02:18;;;;;;;16.88;6.30;;;3.50;99.90;;;;;;5103949;28;20028;-73
2022/12/21 01:04:44;;;;;;;16.52;7.40;;;3.50;99.90;;;;;;5109126;27;20046;-74
2022/12/21 01:07:10;;;;;;;17.25;6.38;;;3.50;99.90;;;;;;5100481;27;20023;-73
2022/12/21 01:09:35;;;;;;;15.90;6.68;;;3.50;99.90;;;;;;5107910;28;20031;-75
2022/12/21 01:12:01;;;;;;;16.02;6.47;;;3.50;99.90;;;;;;5089724;28;20114;-74
2022/12/21 01:14:26;;;;;;;16.67;6.97;;;3.50;99.90;;;;;;5107291;28;20038;-73
2022/12/21 01:16:52;;;;;;;16.33;7.10;;;3.40;99.90;;;;;;5108880;28;20024;-74
2022/12/21 01:19:18;;;;;;;16.50;6.38;;;3.40;99.90;;;;;;5109751;27;20046;-73
2022/12/21 01:21:43;;;;;;;11.73;6.32;;;3.40;99.90;;;;;;5095059;28;20046;-73
2022/12/21 01:24:12;;;;;;;10.43;5.75;;;3.40;99.90;;;;;;5093422;28;20038;-73
2022/12/21 01:26:37;;;;;;;18.88;6.63;;;3.60;99.90;;;;;;5102201;28;20038;-74
2022/12/21 01:29:03;;;;;;;17.00;7.13;;;3.60;99.90;;;;;;5120083;27;20039;-74
2022/12/21 01:31:29;;;;;;;18.30;7.00;;;3.70;99.90;;;;;;5105721;28;20024;-74
2022/12/21 01:33:54;;;;;;;17.20;9.10;;;3.70;99.90;;;;;;5100625;28;20043;-74
2022/12/21 01:36:20;;;;;;;17.52;7.00;;;3.80;99.90;;;;;;5108002;28;20035;-74
2022/12/21 01:38:46;;;;;;;19.85;6.78;;;3.80;99.90;;;;;;5118360;28;20032;-75
2022/12/21 01:41:22;;;;;;;10.57;6.60;;;3.90;99.90;;;;;;5112179;28;20020;-71
2022/12/21 01:43:56;;;;;;;14.65;6.97;;;3.90;99.90;;;;;;5108659;28;20027;-73
2022/12/21 01:46:35;;;;;;;16.20;7.18;;;4.00;99.90;;;;;;5106029;28;20031;-73
2022/12/21 01:49:33;;;;;;;17.48;6.25;;;4.10;99.90;;;;;;5113975;28;20042;-74
2022/12/21 01:52:04;;;;;;;12.35;5.75;;;4.10;99.90;;;;;;5087349;28;20084;-74
2022/12/21 01:54:37;;;;;;;16.88;6.03;;;4.10;99.90;;;;;;5111982;28;20028;-73
2022/12/21 01:57:07;;;;;;;14.07;6.20;;;4.20;99.90;;;;;;5104822;28;20096;-73
2022/12/21 01:59:36;;;;;;;13.90;5.90;;;4.30;99.90;;;;;;5099508;28;20028;-74
2022/12/21 02:02:06;;;;;;;11.68;5.78;;;4.30;99.90;;;;;;5108300;28;20076;-74
2022/12/21 02:04:32;;;;;;;13.00;5.88;;;4.30;99.90;;;;;;5107476;28;20518;-74
2022/12/21 02:06:59;;;;;;;15.82;6.50;;;4.20;99.90;;;;;;5104074;28;20038;-73
2022/12/21 02:09:31;;;;;;;13.38;5.13;;;4.30;99.90;;;;;;5106686;28;20073;-73
2022/12/21 02:11:59;;;;;;;16.02;6.00;;;4.30;99.90;;;;;;5112394;27;20500;-74
2022/12/21 02:14:27;;;;;;;14.50;5.90;;;4.30;99.90;;;;;;5117948;27;20102;-75
2022/12/21 02:17:34;;;;;;;18.33;5.80;;;4.20;99.90;;;;;;5103000;27;20380;-74
2022/12/21 02:20:28;;;;;;;16.83;4.88;;;4.20;99.90;;;;;;5099341;28;20032;-73
2022/12/21 02:23:30;;;;;;;13.90;5.57;;;4.20;99.90;;;;;;5117822;27;20028;-74
2022/12/21 02:26:07;;;;;;;9.07;3.83;;;4.30;99.90;;;;;;5111193;27;20034;-73
2022/12/21 02:28:53;;;;;;;11.63;4.07;;;4.20;99.90;;;;;;5108699;28;20043;-73
2022/12/21 02:31:31;;;;;;;9.57;3.83;;;4.30;99.90;;;;;;5106222;28;20449;-74
2022/12/21 02:34:10;;;;;;;14.20;4.78;;;4.30;99.90;;;;;;5110154;27;20479;-74
2022/12/21 02:37:05;;;;;;;11.75;4.68;;;4.30;99.90;;;;;;5120074;27;20027;-74
2022/12/21 02:39:44;;;;;;;18.50;5.63;;;4.20;99.90;;;;;;5106900;28;20027;-74
2022/12/21 02:45:35;;;;;;;15.25;4.97;;;4.10;99.90;;;;;;5108577;28;20080;-73
2022/12/21 02:48:14;;;;;;;16.08;5.00;;;4.00;99.90;;;;;;5095516;28;20034;-74
2022/12/21 02:50:48;;;;;;;12.45;4.90;;;4.00;99.90;;;;;;5105435;27;20502;-73
2022/12/21 02:53:20;;;;;;;16.10;5.07;;;4.00;99.90;;;;;;5109876;27;20447;-74
2022/12/21 02:55:46;;;;;;;14.52;5.22;;;4.10;99.90;;;;;;5100020;28;20040;-72
2022/12/21 02:58:19;;;;;;;14.55;4.85;;;4.20;99.90;;;;;;5114546;27;20027;-73
2022/12/21 03:00:50;;;;;;;13.95;4.57;;;4.30;99.90;;;;;;5111027;27;20483;-74
2022/12/21 03:03:49;;;;;;;17.15;5.25;;;4.30;99.90;;;;;;5111468;27;20028;-74
2022/12/21 03:06:37;;;;;;;10.00;4.90;;;4.30;99.90;;;;;;5107231;27;20043;-74
2022/12/21 03:09:28;;;;;;;14.93;4.65;;;4.30;99.90;;;;;;5109077;27;20036;-73
2022/12/21 03:12:18;;;;;;;14.65;4.72;;;4.30;99.90;;;;;;5100438;28;20051;-74
2022/12/21 03:14:54;;;;;;;15.98;4.68;;;4.40;99.90;;;;;;5097504;28;20032;-74
2022/12/21 03:17:28;;;;;;;19.33;5.10;;;4.50;99.90;;;;;;5102570;28;20077;-73
2022/12/21 03:20:08;;;;;;;14.20;4.15;;;4.60;99.90;;;;;;5094884;28;20027;-73
2022/12/21 03:22:48;;;;;;;14.98;2.80;;;4.70;99.90;;;;;;5097574;28;20020;-74
2022/12/21 03:25:46;;;;;;;15.35;2.28;;;5.00;99.90;;;;;;5098259;28;20069;-73
2022/12/21 03:28:16;;;;;;;12.73;2.47;;;5.50;99.90;;;;;;5108589;27;20382;-73
2022/12/21 03:30:45;;;;;;;14.57;3.40;;;6.10;99.90;;;;;;5109327;28;20040;-74
2022/12/21 03:33:15;;;;;;;13.05;3.67;;;6.10;99.90;;;;;;5103634;28;20371;-75
2022/12/21 03:36:17;;;;;;;19.25;3.28;;;6.20;99.90;;;;;;5106539;27;20480;-74
2022/12/21 03:38:51;;;;;;;14.55;3.47;;;6.40;99.90;;;;;;5069683;28;20039;-75
2022/12/21 03:41:30;;;;;;;12.57;2.20;;;6.50;99.90;;;;;;5103549;28;20024;-75
2022/12/21 03:44:00;;;;;;;8.85;2.00;;;6.60;99.90;;;;;;5093821;28;20103;-74
2022/12/21 03:46:32;;;;;;;16.77;2.25;;;6.80;99.90;;;;;;5110997;27;20024;-74
2022/12/21 03:49:02;;;;;;;11.57;1.90;;;7.00;99.90;;;;;;5098080;28;20036;-74
2022/12/21 03:51:40;;;;;;;18.55;1.52;;;7.20;99.90;;;;;;5107690;28;20110;-73
2022/12/21 03:54:21;;;;;;;20.27;2.38;;;7.40;99.90;;;;;;5112443;28;20032;-74
2022/12/21 03:56:48;;;;;;;10.55;1.58;;;7.50;99.90;;;;;;5101877;28;20091;-74
2022/12/21 03:59:15;;;;;;;12.93;1.33;;;7.60;99.90;;;;;;5106853;27;20019;-73
2022/12/21 04:02:00;;;;;;;13.77;1.63;;;7.70;99.90;;;;;;5107300;27;20118;-73
2022/12/21 04:04:39;;;;;;;9.85;1.80;;;7.70;99.90;;;;;;5110082;28;20113;-74
2022/12/21 04:07:08;;;;;;;23.73;4.38;;;7.80;99.90;;;;;;5106140;28;20043;-74
2022/12/21 04:09:36;;;;;;;14.55;2.53;;;7.80;99.90;;;;;;5111354;27;20040;-74
2022/12/21 04:15:00;;;;;;;10.68;1.08;;;8.00;99.90;;;;;;5065778;28;20039;-75
2022/12/21 04:17:25;;;;;;;8.45;1.30;;;8.20;99.90;;;;;;5103549;27;20143;-73
2022/12/21 04:20:02;;;;;;;14.13;1.92;;;8.10;99.90;;;;;;5105072;27;20032;-74
2022/12/21 04:28:08;;;;;;;14.43;1.65;;;8.20;99.90;;;;;;5099638;27;20450;-74
2022/12/21 04:30:40;;;;;;;13.45;1.13;;;8.40;99.90;;;;;;5111721;27;20039;-74
2022/12/21 04:33:07;;;;;;;17.77;2.25;;;8.50;99.90;;;;;;5104828;28;20062;-74
2022/12/21 04:35:33;;;;;;;12.48;0.90;;;8.50;99.90;;;;;;5112120;27;20470;-72
2022/12/21 04:37:59;;;;;;;12.45;1.55;;;8.60;99.90;;;;;;5117891;27;20024;-73
2022/12/21 04:40:25;;;;;;;11.48;2.13;;;8.60;99.90;;;;;;5107488;27;20383;-74
2022/12/21 04:42:51;;;;;;;7.00;1.27;;;8.70;99.90;;;;;;5106577;27;20424;-74
2022/12/21 04:45:16;;;;;;;8.45;2.58;;;8.90;99.90;;;;;;5111590;28;20034;-74
2022/12/21 04:47:42;;;;;;;9.95;2.17;;;8.90;99.90;;;;;;5107563;27;20027;-74
2022/12/21 04:50:08;;;;;;;11.07;2.45;;;9.00;99.90;;;;;;5109787;27;20074;-74
2022/12/21 04:52:34;;;;;;;11.40;2.40;;;9.10;99.90;;;;;;5103607;27;20020;-75
2022/12/21 04:54:59;;;;;;;8.68;1.33;;;9.00;99.90;;;;;;5093908;28;20031;-74
2022/12/21 04:57:25;;;;;;;11.25;1.27;;;9.10;99.90;;;;;;5105297;28;20148;-74
2022/12/21 04:59:51;;;;;;;12.13;2.22;;;9.00;99.90;;;;;;5108410;28;20551;-73
2022/12/21 05:02:16;;;;;;;12.93;1.80;;;9.00;99.90;;;;;;5112431;27;20491;-74
2022/12/21 05:04:42;;;;;;;14.27;2.33;;;9.10;99.90;;;;;;5102173;27;20040;-73
2022/12/21 05:07:08;;;;;;;17.98;2.03;;;9.10;99.90;;;;;;5110087;27;20043;-74
2022/12/21 05:09:34;;;;;;;9.52;1.58;;;9.10;99.90;;;;;;5107237;27;20404;-73
2022/12/21 05:11:59;;;;;;;8.32;1.30;;;9.10;99.90;;;;;;5087949;28;20034;-74
2022/12/21 05:14:25;;;;;;;8.85;1.92;;;9.00;99.90;;;;;;5105075;27;20024;-73
2022/12/21 05:16:51;;;;;;;8.65;1.20;;;8.80;99.90;;;;;;5112248;27;20497;-72
2022/12/21 05:19:18;;;;;;;13.32;2.05;;;8.80;99.90;;;;;;5110292;28;20023;-74
2022/12/21 05:21:44;;;;;;;9.55;1.05;;;8.80;99.90;;;;;;5110458;27;20028;-73
2022/12/21 05:24:10;;;;;;;10.95;1.50;;;8.80;99.90;;;;;;5103304;28;20039;-73
2022/12/21 05:26:36;;;;;;;7.90;1.88;;;8.90;99.90;;;;;;5101507;28;20019;-74
2022/12/21 05:29:01;;;;;;;9.57;2.08;;;8.80;99.90;;;;;;5097831;28;20115;-74
2022/12/21 05:31:27;;;;;;;12.05;1.02;;;8.70;99.90;;;;;;5081294;28;20024;-74
2022/12/21 05:33:53;;;;;;;6.88;1.38;;;8.70;99.90;;;;;;5101563;28;20459;-74
2022/12/21 05:36:18;;;;;;;9.93;1.35;;;8.70;99.90;;;;;;5113826;28;20023;-74
2022/12/21 05:38:45;;;;;;;8.68;1.45;;;8.60;99.90;;;;;;5111330;28;20051;-74
2022/12/21 05:41:12;;;;;;;10.13;1.52;;;8.60;99.90;;;;;;5122626;27;20050;-73
2022/12/21 05:43:37;;;;;;;15.65;2.05;;;8.70;99.90;;;;;;5120078;27;20034;-73
2022/12/21 05:46:05;;;;;;;9.43;1.85;;;8.60;99.90;;;;;;5115716;27;20015;-73
2022/12/21 05:48:32;;;;;;;7.78;1.55;;;8.60;99.90;;;;;;5119638;27;20032;-73
2022/12/21 05:50:58;;;;;;;18.00;2.30;;;8.60;99.90;;;;;;5095348;28;20039;-74
2022/12/21 05:53:24;;;;;;;9.13;1.90;;;8.60;99.90;;;;;;5114855;27;20359;-73
2022/12/21 05:55:51;;;;;;;18.27;1.63;;;8.60;99.90;;;;;;5119678;27;20970;-74
2022/12/21 05:58:19;;;;;;;11.20;1.50;;;8.60;99.90;;;;;;5116187;27;20044;-74
2022/12/21 06:00:44;;;;;;;16.38;1.85;;;8.60;99.90;;;;;;5122800;27;20092;-75
2022/12/21 06:03:10;;;;;;;13.90;2.40;;;8.60;99.90;;;;;;5110069;27;20024;-73
2022/12/21 06:05:36;;;;;;;15.05;1.40;;;8.50;99.90;;;;;;5112639;27;20039;-75
2022/12/21 06:08:03;;;;;;;14.98;1.77;;;8.50;99.90;;;;;;5119616;27;20028;-75
2022/12/21 06:10:29;;;;;;;13.73;1.95;;;8.60;99.90;;;;;;5120894;27;20118;-74
2022/12/21 06:12:55;;;;;;;15.45;2.47;;;8.80;99.90;;;;;;5117380;27;20027;-74
2022/12/21 06:15:21;;;;;;;10.57;1.88;;;8.90;99.90;;;;;;5113202;27;20038;-73
2022/12/21 06:17:46;;;;;;;7.78;0.95;;;8.90;99.90;;;;;;5114164;27;20035;-75
2022/12/21 06:20:12;;;;;;;16.85;2.70;;;8.90;99.90;;;;;;5109973;28;20019;-74
2022/12/21 06:22:40;;;;;;;15.07;2.65;;;9.00;99.90;;;;;;5108639;28;20040;-75
2022/12/21 06:25:07;;;;;;;9.52;1.35;;;8.90;99.90;;;;;;5105896;28;20015;-74
2022/12/21 06:27:33;;;;;;;14.27;2.22;;;8.90;99.90;;;;;;5103293;28;20443;-73
2022/12/21 06:29:58;;;;;;;12.90;1.80;;;8.90;99.90;;;;;;5108705;28;20119;-72
2022/12/21 06:32:24;;;;;;;16.58;1.55;;;8.90;99.90;;;;;;5085677;28;20020;-73
2022/12/21 06:34:50;;;;;;;12.93;1.75;;;8.90;99.90;;;;;;5102161;28;20023;-74
2022/12/21 06:37:15;;;;;;;19.00;2.35;;;9.00;99.90;;;;;;5086360;28;20472;-74
2022/12/21 06:39:41;;;;;;;9.93;1.67;;;9.00;99.90;;;;;;5098409;28;20102;-74
2022/12/21 06:42:07;;;;;;;10.40;1.40;;;9.10;99.90;;;;;;5083660;28;20020;-74
2022/12/21 06:44:33;;;;;;;13.05;1.48;;;9.00;99.90;;;;;;5102484;28;20031;-74
2022/12/21 06:46:59;;;;;;;12.18;2.05;;;9.00;99.90;;;;;;5107791;28;20034;-75
2022/12/21 06:49:25;;;;;;;13.10;1.70;;;8.90;99.90;;;;;;5091199;28;20463;-73
2022/12/21 06:51:51;;;;;;;5.53;1.10;;;8.90;99.90;;;;;;5103633;28;20031;-73
2022/12/21 06:54:16;;;;;;;11.63;2.15;;;9.00;99.90;;;;;;5104897;28;20027;-74
2022/12/21 06:56:42;;;;;;;11.55;2.05;;;9.00;99.90;;;;;;5104807;28;20027;-74
2022/12/21 06:59:08;;;;;;;13.10;1.80;;;9.10;99.90;;;;;;5105743;28;20333;-73
2022/12/21 07:01:35;;;;;;;14.40;1.75;;;9.10;99.90;;;;;;5096875;28;20028;-74
2022/12/21 07:04:01;;;;;;;11.95;2.00;;;9.10;99.90;;;;;;5106466;28;20457;-75
2022/12/21 07:06:29;;;;;;;13.50;1.75;;;9.10;99.90;;;;;;5096850;28;20035;-73
2022/12/21 07:08:55;;;;;;;13.43;2.20;;;9.20;99.90;;;;;;5100391;28;20498;-73
2022/12/21 07:11:24;;;;;;;10.02;2.30;;;9.30;99.90;;;;;;5098916;28;20080;-74
2022/12/21 07:13:52;;;;;;;9.70;1.80;;;9.40;99.90;;;;;;5094636;28;20032;-74
2022/12/21 07:16:17;;;;;;;9.30;2.10;;;9.40;99.90;;;;;;5102822;28;20016;-74
2022/12/21 07:18:44;;;;;;;10.57;1.80;;;9.40;99.90;;;;;;5102926;28;20030;-74
2022/12/21 07:21:17;;;;;;;12.63;2.35;;;9.40;99.90;;;;;;5104119;28;20020;-74
2022/12/21 07:23:43;;;;;;;11.65;2.20;;;9.50;99.90;;;;;;5102957;28;20038;-74
2022/12/21 07:26:18;;;;;;;9.35;1.73;;;9.50;99.90;;;;;;5099838;28;20114;-75
2022/12/21 07:28:45;;;;;;;9.15;1.73;;;9.50;99.90;;;;;;5101875;28;20035;-75
2022/12/21 07:31:13;;;;;;;9.52;1.85;;;9.60;99.90;;;;;;5108247;28;20114;-74
2022/12/21 07:33:40;;;;;;;14.20;2.58;;;9.60;99.90;;;;;;5102544;28;20102;-73
2022/12/21 07:36:10;;;;;;;7.93;1.95;;;9.70;99.90;;;;;;5098722;28;20093;-74
2022/12/21 07:38:37;;;;;;;9.52;1.60;;;9.70;99.90;;;;;;5102096;28;20032;-74
2022/12/21 07:41:05;;;;;;;12.18;1.50;;;9.60;99.90;;;;;;5103304;28;20022;-74
2022/12/21 07:43:31;;;;;;;8.05;2.03;;;9.60;99.90;;;;;;5105204;28;20034;-75
2022/12/21 07:45:57;;;;;;;16.65;1.60;;;9.60;99.90;;;;;;5106440;28;20387;-74
2022/12/21 07:48:23;;;;;;;13.02;1.60;;;9.60;99.90;;;;;;5084887;28;20034;-75
2022/12/21 07:50:50;;;;;;;13.20;1.67;;;9.70;99.90;;;;;;5105969;28;20126;-74
2022/12/21 07:53:17;;;;;;;10.30;1.70;;;9.70;99.90;;;;;;5089526;28;20027;-75
2022/12/21 07:55:43;;;;;;;12.70;2.38;;;9.70;99.90;;;;;;5093680;28;20079;-75
2022/12/21 07:58:09;;;;;;;12.25;1.65;;;9.70;99.90;;;;;;5103481;28;20440;-75
2022/12/21 08:00:37;;;;;;;15.85;2.30;;;9.70;99.90;;;;;;5104890;28;20019;-74
2022/12/21 08:03:03;;;;;;;11.77;2.38;;;9.70;99.90;;;;;;5099869;28;20072;-75
2022/12/21 08:05:29;;;;;;;13.80;1.73;;;9.80;99.90;;;;;;5103621;28;20040;-73
2022/12/21 08:07:57;;;;;;;10.40;1.38;;;9.80;99.90;;;;;;5104616;28;20020;-74
2022/12/21 08:10:22;;;;;;;9.48;2.17;;;9.80;99.90;;;;;;5092975;28;20027;-75
2022/12/21 08:12:51;;;;;;;11.38;1.50;;;9.80;99.90;;;;;;5084192;28;20046;-73
2022/12/21 08:15:17;;;;;;;8.27;1.02;;;9.90;99.90;;;;;;5105360;28;20058;-75
2022/12/21 08:17:43;;;;;;;13.30;2.40;;;9.90;99.90;;;;;;5110149;28;20379;-73
2022/12/21 08:20:09;;;;;;;10.43;1.48;;;10.00;99.90;;;;;;5108407;27;20035;-74
2022/12/21 08:22:35;;;;;;;9.18;1.45;;;10.00;99.90;;;;;;5088760;28;20510;-74
2022/12/21 08:25:01;;;;;;;9.55;1.75;;;10.00;99.90;;;;;;5105714;28;20481;-74
2022/12/21 08:27:27;;;;;;;13.10;1.92;;;10.00;99.90;;;;;;5098347;28;20043;-74
2022/12/21 08:29:52;;;;;;;12.95;2.30;;;10.10;99.90;;;;;;5107003;27;20035;-74
2022/12/21 08:32:18;;;;;;;8.55;1.58;;;10.10;99.90;;;;;;5106748;27;20482;-75
2022/12/21 08:34:45;;;;;;;9.43;1.50;;;10.10;99.90;;;;;;5096971;28;20055;-76
2022/12/21 08:37:11;;;;;;;12.70;1.95;;;10.00;99.90;;;;;;5107076;28;20045;-75
2022/12/21 08:39:36;;;;;;;13.15;1.42;;;9.90;99.90;;;;;;5110734;28;20110;-74
2022/12/21 08:42:03;;;;;;;12.38;1.40;;;9.90;99.90;;;;;;5111163;28;20016;-74
2022/12/21 08:44:29;;;;;;;14.77;2.30;;;9.90;99.90;;;;;;5108114;28;20104;-75
2022/12/21 08:46:55;;;;;;;10.68;2.22;;;9.90;99.90;;;;;;5088532;28;20028;-75
2022/12/21 08:49:20;;;;;;;10.93;2.03;;;10.00;99.90;;;;;;5093557;28;20035;-73
2022/12/21 08:51:46;;;;;;;12.52;1.80;;;10.00;99.90;;;;;;5109160;28;20430;-73
2022/12/21 08:54:12;;;;;;;12.30;1.77;;;10.00;99.90;;;;;;5090969;28;20114;-75
2022/12/21 08:56:37;;;;;;;13.68;1.73;;;10.00;99.90;;;;;;5082475;28;20034;-75
2022/12/21 08:59:06;;;;;;;8.10;1.50;;;10.10;99.90;;;;;;5105591;28;20526;-75
2022/12/21 09:01:33;;;;;;;8.70;0.98;;;10.10;99.90;;;;;;5110756;28;20038;-76
2022/12/21 09:04:00;;;;;;;16.40;2.63;;;10.20;99.90;;;;;;5103920;28;20072;-73
2022/12/21 09:06:26;;;;;;;8.70;1.55;;;10.20;99.90;;;;;;5110192;28;20043;-75
2022/12/21 09:08:51;;;;;;;5.15;0.88;;;10.30;99.90;;;;;;5107915;28;20032;-77
2022/12/21 09:11:19;;;;;;;15.13;1.88;;;10.20;99.90;;;;;;5108581;28;20030;-76
2022/12/21 09:13:45;;;;;;;8.45;1.10;;;10.30;99.90;;;;;;5109126;28;20076;-75
2022/12/21 09:16:22;;;;;;;10.02;1.27;;;10.30;99.90;;;;;;5111373;28;20027;-72
2022/12/21 09:18:49;;;;;;;12.75;2.05;;;10.20;99.90;;;;;;5087360;28;20028;-77
2022/12/21 09:21:18;;;;;;;11.60;1.92;;;10.20;99.90;;;;;;5105523;28;20031;-72
2022/12/21 09:23:44;;;;;;;11.43;2.63;;;10.20;99.90;;;;;;5108493;28;20028;-74
2022/12/21 09:26:09;;;;;;;15.13;5.15;;;10.20;99.90;;;;;;5110907;28;20038;-73
2022/12/21 09:28:36;;;;;;;7.18;1.02;;;10.30;99.90;;;;;;5099511;28;20055;-71
2022/12/21 09:31:11;;;;;;;15.35;1.80;;;10.30;99.90;;;;;;5090004;28;20027;-70
2022/12/21 09:33:38;;;;;;;6.05;1.50;;;10.30;99.90;;;;;;5102793;28;20024;-74
2022/12/21 09:36:05;;;;;;;36.10;16.52;;;10.40;99.90;;;;;;5099970;28;20140;-72
2022/12/21 09:38:31;;;;;;;18.38;3.95;;;10.40;99.90;;;;;;5099622;28;20016;-73
2022/12/21 09:41:34;;;;;;;23.08;7.38;;;10.40;99.90;;;;;;5097973;28;20092;-73
2022/12/21 09:44:07;;;;;;;10.90;1.42;;;10.30;99.90;;;;;;5048363;28;20036;-72
2022/12/21 09:46:36;;;;;;;13.02;2.08;;;10.30;99.90;;;;;;5101149;28;20390;-73
2022/12/21 09:49:10;;;;;;;7.32;1.50;;;10.30;99.90;;;;;;5098890;28;20039;-74
2022/12/21 09:51:36;;;;;;;19.02;2.28;;;10.40;99.90;;;;;;5100880;28;20472;-73
2022/12/21 09:54:16;;;;;;;11.25;2.08;;;10.40;99.90;;;;;;5104668;28;20020;-73
2022/12/21 09:56:47;;;;;;;9.27;1.35;;;10.50;99.90;;;;;;5096495;28;20055;-72
2022/12/21 09:59:16;;;;;;;16.13;2.25;;;10.60;99.90;;;;;;5108943;28;20036;-73
2022/12/21 10:02:26;;;;;;;14.32;1.98;;;10.70;99.90;;;;;;5108004;28;20497;-74
2022/12/21 10:05:18;;;;;;;6.35;1.38;;;10.70;99.90;;;;;;5079072;28;20127;-74
2022/12/21 10:07:58;;;;;;;15.43;1.35;;;10.80;99.90;;;;;;5102804;28;20024;-75
2022/12/21 10:10:45;;;;;;;9.63;1.35;;;10.80;99.90;;;;;;5107059;28;20518;-72
2022/12/21 10:13:23;;;;;;;7.85;1.50;;;10.90;99.90;;;;;;5089510;28;20475;-74
2022/12/21 10:16:03;;;;;;;10.43;1.50;;;10.90;99.90;;;;;;5105614;28;20051;-75
2022/12/21 10:18:45;;;;;;;7.82;1.55;;;10.90;99.90;;;;;;5106322;28;20069;-75
2022/12/21 10:21:45;;;;;;;10.57;1.65;;;10.90;99.90;;;;;;5108182;28;20494;-72
2022/12/21 10:24:22;;;;;;;12.10;1.92;;;10.90;99.90;;;;;;5106935;28;20028;-72
2022/12/21 10:26:55;;;;;;;5.75;1.40;;;11.00;99.90;;;;;;5110661;28;20028;-73
2022/12/21 10:29:27;;;;;;;13.75;2.08;;;11.00;99.90;;;;;;5109104;28;20050;-72
2022/12/21 10:31:54;;;;;;;5.25;1.05;;;11.10;99.90;;;;;;5105176;28;20035;-71
2022/12/21 10:34:24;;;;;;;7.13;2.33;;;11.10;99.90;;;;;;5110958;28;20034;-73
2022/12/21 10:37:01;;;;;;;13.02;3.75;;;11.00;99.90;;;;;;5108883;28;20114;-73
2022/12/21 10:39:28;;;;;;;13.93;4.03;;;11.00;99.90;;;;;;5110714;28;20032;-76
2022/12/21 10:42:28;;;;;;;8.35;1.33;;;10.90;99.90;;;;;;5108042;28;20042;-73
2022/12/21 10:44:53;;;;;;;22.98;6.85;;;10.90;99.90;;;;;;5112583;28;20851;-74
2022/12/21 10:48:03;;;;;;;11.77;2.40;;;10.80;99.90;;;;;;5093320;28;20027;-70
2022/12/21 10:50:32;;;;;;;7.85;1.70;;;10.80;99.90;;;;;;5106229;28;20406;-71
2022/12/21 10:53:00;;;;;;;13.65;2.38;;;10.70;99.90;;;;;;5110897;28;20359;-72
2022/12/21 10:55:34;;;;;;;17.58;2.92;;;10.60;99.90;;;;;;5113090;28;20467;-71
2022/12/21 10:58:27;;;;;;;10.95;1.52;;;10.60;99.90;;;;;;5110273;28;20036;-72
2022/12/21 11:00:56;;;;;;;12.50;2.60;;;10.60;99.90;;;;;;5102076;28;20031;-71
2022/12/21 11:03:31;;;;;;;9.30;1.23;;;10.60;99.90;;;;;;5112670;28;20073;-72
2022/12/21 11:05:57;;;;;;;8.93;1.35;;;10.60;99.90;;;;;;5109651;28;20093;-71
2022/12/21 11:08:29;;;;;;;13.23;1.92;;;10.60;99.90;;;;;;5111162;28;20035;-72
2022/12/21 11:11:03;;;;;;;17.42;3.13;;;10.60;99.90;;;;;;5109719;28;20032;-69
2022/12/21 11:13:31;;;;;;;8.55;2.58;;;10.60;99.90;;;;;;5108876;28;20503;-73
2022/12/21 11:16:06;;;;;;;12.77;1.98;;;10.60;99.90;;;;;;5110970;28;20027;-72
2022/12/21 11:18:40;;;;;;;14.18;2.95;;;10.70;99.90;;;;;;5112730;28;20028;-73
2022/12/21 11:21:20;;;;;;;12.07;1.23;;;10.70;99.90;;;;;;5093255;28;20032;-72
2022/12/21 11:23:57;;;;;;;13.25;1.58;;;10.70;99.90;;;;;;5104022;28;20251;-72
2022/12/21 11:26:35;;;;;;;13.38;1.92;;;10.70;99.90;;;;;;5110954;28;20502;-72
2022/12/21 11:29:04;;;;;;;13.00;2.05;;;10.70;99.90;;;;;;5110113;28;20035;-72
2022/12/21 11:31:31;;;;;;;6.45;1.17;;;10.60;99.90;;;;;;5111165;28;20023;-71
2022/12/21 11:33:57;;;;;;;9.05;1.13;;;10.60;99.90;;;;;;5109844;28;20027;-73
2022/12/21 11:36:23;;;;;;;9.50;0.73;;;10.60;99.90;;;;;;5099783;28;20019;-73
2022/12/21 11:38:48;;;;;;;7.38;0.88;;;10.60;99.90;;;;;;5104886;27;20032;-72
2022/12/21 11:41:26;;;;;;;10.27;1.15;;;10.70;99.90;;;;;;5076003;28;20008;-70
2022/12/21 11:43:52;;;;;;;3.92;1.10;;;10.70;99.90;;;;;;5079941;28;20028;-72
2022/12/21 11:46:17;;;;;;;11.88;5.10;;;10.70;99.90;;;;;;5102267;28;20077;-72
2022/12/21 11:48:59;;;;;;;40.33;21.35;;;10.70;99.90;;;;;;5102472;28;20023;-69
2022/12/21 11:51:30;;;;;;;8.80;1.95;;;10.70;99.90;;;;;;5084838;28;20032;-73
2022/12/21 11:54:48;;;;;;;5.80;1.70;;;10.70;99.90;;;;;;5085070;28;20027;-75
2022/12/21 11:57:32;;;;;;;5.38;0.68;;;10.60;99.90;;;;;;5046301;28;20437;-76
2022/12/21 12:00:10;;;;;;;4.53;0.63;;;10.70;99.90;;;;;;5109897;28;20057;-71
2022/12/21 12:03:07;;;;;;;7.38;0.95;;;10.70;99.90;;;;;;5102707;28;20024;-74
2022/12/21 12:06:03;;;;;;;8.20;1.30;;;10.80;99.90;;;;;;5100870;28;20039;-77
2022/12/21 12:08:53;;;;;;;6.65;2.75;;;10.80;99.90;;;;;;5103706;28;20028;-77
2022/12/21 12:11:44;;;;;;;7.95;1.05;;;11.00;99.90;;;;;;5105812;28;20035;-76
2022/12/21 12:14:21;;;;;;;6.10;1.00;;;11.10;99.90;;;;;;5085642;28;20031;-74
2022/12/21 12:17:11;;;;;;;6.43;1.00;;;11.30;99.90;;;;;;5097776;28;20028;-77
2022/12/21 12:20:21;;;;;;;6.10;1.02;;;11.40;99.90;;;;;;5090347;28;20051;-76
2022/12/21 12:23:18;;;;;;;3.95;1.10;;;11.60;99.90;;;;;;5025974;28;20041;-74
2022/12/21 12:26:12;;;;;;;12.52;3.63;;;11.60;99.90;;;;;;5024490;28;20044;-72
2022/12/21 12:29:00;;;;;;;6.22;1.02;;;11.60;99.90;;;;;;5025641;28;20042;-74
2022/12/21 12:31:35;;;;;;;11.65;1.58;;;11.50;99.90;;;;;;5026553;28;20080;-74
2022/12/21 12:34:20;;;;;;;6.57;0.85;;;11.60;99.90;;;;;;5021108;28;20095;-73
2022/12/21 12:37:02;;;;;;;5.82;0.65;;;11.70;99.90;;;;;;5025431;28;20029;-73
2022/12/21 12:40:01;;;;;;;3.67;0.60;;;11.70;99.90;;;;;;5019714;28;20072;-75
2022/12/21 12:42:53;;;;;;;57.17;20.88;;;11.80;99.90;;;;;;5024578;28;20029;-76
2022/12/21 12:45:37;;;;;;;14.65;5.63;;;11.80;99.90;;;;;;5025711;28;20030;-76
2022/12/21 12:48:09;;;;;;;7.10;1.27;;;12.00;99.90;;;;;;5018764;28;20045;-76
2022/12/21 12:50:46;;;;;;;6.05;2.20;;;12.00;99.90;;;;;;5024438;28;20041;-74
2022/12/21 12:53:23;;;;;;;4.63;1.10;;;12.00;99.90;;;;;;5052180;28;20036;-76
2022/12/21 12:55:57;;;;;;;5.50;1.88;;;12.20;99.90;;;;;;5099763;28;20049;-76
2022/12/21 12:58:41;;;;;;;7.25;0.80;;;12.10;99.90;;;;;;5104696;28;20020;-75
2022/12/21 13:01:21;;;;;;;3.70;1.75;;;12.00;99.90;;;;;;5097792;28;20091;-75
2022/12/21 13:03:53;;;;;;;4.28;0.32;;;11.90;99.90;;;;;;5099655;28;20024;-76
2022/12/21 13:06:34;;;;;;;4.32;1.77;;;11.90;99.90;;;;;;5105830;28;20046;-74
2022/12/21 13:09:25;;;;;;;2.88;0.60;;;11.80;99.90;;;;;;5098847;28;20390;-75
2022/12/21 13:11:58;;;;;;;2.30;0.57;;;11.70;99.90;;;;;;5093780;28;20491;-74
2022/12/21 13:14:41;;;;;;;6.53;0.80;;;11.50;99.90;;;;;;5103098;28;20456;-74
2022/12/21 13:17:30;;;;;;;3.40;1.20;;;11.50;99.90;;;;;;5096660;28;20383;-75
2022/12/21 13:20:33;;;;;;;2.20;0.20;;;11.40;99.90;;;;;;5103646;28;20040;-74
2022/12/21 13:23:37;;;;;;;3.58;1.35;;;11.40;99.90;;;;;;5101419;28;20431;-75